Time;durP1;ratioP1;P1;durP2;ratioP2;P2;SDS_P1;SDS_P2;PMS_P1;PMS_P2;Temp;Humidity;BMP_temperature;BMP_pressure;BME280_temperature;BME280_humidity;BME280_pressure;Samples;Min_cycle;Max_cycle;Signal;HPM_P1;HPM_P2
2022/08/22 08:08:23;;;;;;;4.83;3.20;;;21.10;98.00;;;;;;4897087;29;20554;-89
2022/08/22 08:10:53;;;;;;;4.50;2.73;;;21.20;98.00;;;;;;4898581;29;20541;-90
2022/08/22 08:13:26;;;;;;;4.60;3.10;;;21.30;98.00;;;;;;4898435;29;20471;-89
2022/08/22 08:15:54;;;;;;;5.23;3.07;;;21.50;98.00;;;;;;4898951;29;20865;-89
2022/08/22 08:18:24;;;;;;;4.80;2.60;;;21.80;98.00;;;;;;4898261;29;20465;-90
2022/08/22 08:20:55;;;;;;;3.90;2.37;;;22.00;98.00;;;;;;4899301;29;20481;-91
2022/08/22 08:23:25;;;;;;;4.77;3.10;;;22.20;98.00;;;;;;4898637;29;20583;-91
2022/08/22 08:25:58;;;;;;;4.50;2.70;;;22.20;98.00;;;;;;4898918;29;20472;-90
2022/08/22 08:28:33;;;;;;;4.03;2.60;;;22.40;98.00;;;;;;4898136;29;20507;-91
2022/08/22 08:31:08;;;;;;;5.63;2.80;;;22.60;98.00;;;;;;4898249;29;20502;-90
2022/08/22 08:33:38;;;;;;;4.23;3.00;;;22.70;98.00;;;;;;4898336;29;20516;-90
2022/08/22 08:36:23;;;;;;;4.90;3.10;;;22.90;98.00;;;;;;4898122;29;20460;-90
2022/08/22 08:38:58;;;;;;;4.70;3.00;;;23.00;98.00;;;;;;4897883;29;20469;-90
2022/08/22 08:41:53;;;;;;;4.90;2.90;;;23.20;98.00;;;;;;4898048;29;20488;-90
2022/08/22 08:44:36;;;;;;;6.30;3.30;;;23.30;98.00;;;;;;4897875;29;20473;-90
2022/08/22 08:47:29;;;;;;;4.30;3.00;;;23.50;98.00;;;;;;4897859;29;20464;-91
2022/08/22 08:50:19;;;;;;;5.07;3.27;;;23.80;98.00;;;;;;4896405;29;20469;-91
2022/08/22 08:53:09;;;;;;;4.80;3.27;;;23.90;98.00;;;;;;4897728;29;20509;-92
2022/08/22 08:55:46;;;;;;;4.93;2.87;;;24.00;98.00;;;;;;4897796;29;20455;-91
2022/08/22 08:58:37;;;;;;;5.70;3.00;;;24.10;98.00;;;;;;4897738;29;20464;-91
2022/08/22 09:01:18;;;;;;;4.00;2.60;;;24.20;98.00;;;;;;4896084;29;20571;-90
2022/08/22 09:04:16;;;;;;;4.50;2.80;;;24.40;98.00;;;;;;4898521;29;20484;-92
2022/08/22 09:06:59;;;;;;;7.00;3.43;;;24.50;98.00;;;;;;4896559;29;20481;-92
2022/08/22 09:09:47;;;;;;;5.17;3.20;;;24.70;98.00;;;;;;4898219;29;20508;-91
2022/08/22 09:12:38;;;;;;;5.40;2.93;;;24.80;97.80;;;;;;4899391;29;20461;-90
2022/08/22 09:15:36;;;;;;;4.80;3.47;;;24.90;97.40;;;;;;4900689;29;20508;-92
2022/08/22 09:18:44;;;;;;;7.87;3.63;;;25.10;97.50;;;;;;4897876;29;20489;-91
2022/08/22 09:21:27;;;;;;;7.10;3.50;;;25.30;96.60;;;;;;4911458;29;20479;-90
2022/08/22 09:24:26;;;;;;;5.00;3.00;;;25.40;95.20;;;;;;4905914;29;20557;-91
2022/08/22 09:26:57;;;;;;;4.17;3.00;;;25.50;94.50;;;;;;4898932;29;20512;-91
2022/08/22 09:29:40;;;;;;;5.20;3.03;;;25.60;95.00;;;;;;4901310;29;20484;-94
2022/08/22 09:32:14;;;;;;;5.63;3.27;;;25.70;95.90;;;;;;4898745;29;20499;-94
2022/08/22 09:34:57;;;;;;;3.77;2.87;;;25.90;94.90;;;;;;4898617;29;20461;-94
2022/08/22 09:37:37;;;;;;;4.20;3.13;;;26.10;94.30;;;;;;4899132;29;20476;-94
2022/08/22 09:40:14;;;;;;;5.97;3.53;;;26.30;93.30;;;;;;4897842;29;20472;-94
2022/08/22 09:42:51;;;;;;;4.20;2.90;;;26.30;91.40;;;;;;4898023;29;20465;-93
2022/08/22 09:45:57;;;;;;;4.80;3.00;;;26.40;90.70;;;;;;4897585;29;20815;-92
2022/08/22 09:48:45;;;;;;;5.20;2.93;;;26.50;90.30;;;;;;4897637;29;20461;-90
2022/08/22 09:51:19;;;;;;;3.93;2.73;;;26.70;92.60;;;;;;4896716;29;20493;-89
2022/08/22 09:54:24;;;;;;;3.73;2.63;;;26.80;89.60;;;;;;4896930;29;20476;-90
2022/08/22 09:57:07;;;;;;;4.93;3.07;;;27.00;88.10;;;;;;4896754;29;20492;-89
2022/08/22 09:59:50;;;;;;;3.17;2.53;;;27.10;88.20;;;;;;4896772;29;20481;-89
2022/08/22 10:02:29;;;;;;;4.07;2.60;;;27.20;88.20;;;;;;4896822;29;20480;-91
2022/08/22 10:05:02;;;;;;;4.30;3.00;;;27.40;85.80;;;;;;4896858;29;21025;-92
2022/08/22 10:07:57;;;;;;;3.40;2.90;;;27.40;86.30;;;;;;4896571;29;20469;-92
2022/08/22 10:10:40;;;;;;;3.80;2.80;;;27.60;87.80;;;;;;4896607;29;20489;-91
2022/08/22 10:13:20;;;;;;;4.90;2.90;;;27.70;84.80;;;;;;4896721;29;20465;-92
2022/08/22 10:15:57;;;;;;;3.03;2.63;;;27.70;85.40;;;;;;4900192;29;20509;-92
2022/08/22 10:18:36;;;;;;;5.40;2.87;;;27.70;85.90;;;;;;4899953;29;20469;-91
2022/08/22 10:21:13;;;;;;;5.60;3.03;;;27.90;84.50;;;;;;4900071;29;20484;-92
2022/08/22 10:23:48;;;;;;;3.87;2.50;;;28.10;84.10;;;;;;4900239;29;20492;-91
2022/08/22 10:26:30;;;;;;;3.47;2.97;;;28.30;83.50;;;;;;4900253;29;20464;-93
2022/08/22 10:29:07;;;;;;;2.90;2.50;;;28.50;82.10;;;;;;4899914;29;20977;-93
2022/08/22 10:31:40;;;;;;;3.87;2.93;;;28.40;81.70;;;;;;4899808;29;20492;-92
2022/08/22 10:34:13;;;;;;;5.73;3.40;;;28.60;81.50;;;;;;4900231;29;20880;-91
2022/08/22 10:36:50;;;;;;;4.73;2.73;;;28.70;81.00;;;;;;4899853;29;20529;-91
2022/08/22 10:39:24;;;;;;;3.37;2.67;;;28.80;80.50;;;;;;4900272;29;20464;-93
2022/08/22 10:42:18;;;;;;;3.20;2.37;;;28.80;78.10;;;;;;4899709;29;20508;-92
2022/08/22 10:44:58;;;;;;;3.10;2.47;;;28.90;81.30;;;;;;4899956;29;20497;-92
2022/08/22 10:47:37;;;;;;;3.00;2.40;;;29.00;77.80;;;;;;4899987;29;20469;-92
2022/08/22 10:50:12;;;;;;;3.97;2.70;;;29.20;77.80;;;;;;4899856;29;20479;-93
2022/08/22 10:52:45;;;;;;;3.13;2.57;;;29.50;78.30;;;;;;4899815;29;20472;-92
2022/08/22 10:55:16;;;;;;;2.77;2.50;;;29.70;77.50;;;;;;4899846;29;20465;-93
2022/08/22 10:58:05;;;;;;;3.07;2.60;;;30.00;75.20;;;;;;4899283;29;20469;-92
2022/08/22 11:00:43;;;;;;;5.27;2.90;;;30.20;77.20;;;;;;4899430;29;20480;-93
2022/08/22 11:03:16;;;;;;;3.90;2.60;;;30.30;74.30;;;;;;4899465;29;20478;-93
2022/08/22 11:05:46;;;;;;;3.60;2.80;;;30.30;74.90;;;;;;4899561;29;20465;-93
2022/08/22 11:08:32;;;;;;;3.87;2.70;;;30.30;77.50;;;;;;4899746;29;20810;-93
2022/08/22 11:11:17;;;;;;;3.80;2.90;;;30.60;77.20;;;;;;4900521;29;20493;-93
2022/08/22 11:13:54;;;;;;;3.63;2.53;;;30.70;75.90;;;;;;4899472;29;20865;-93
2022/08/22 11:16:35;;;;;;;4.07;2.63;;;30.50;75.20;;;;;;4899391;29;20491;-92
2022/08/22 11:19:25;;;;;;;2.93;2.57;;;29.90;74.70;;;;;;4899268;29;20472;-93
2022/08/22 11:22:05;;;;;;;3.80;2.70;;;29.60;76.50;;;;;;4899619;29;20857;-94
2022/08/22 11:25:14;;;;;;;3.60;2.70;;;29.10;77.10;;;;;;4903322;29;20579;-93
2022/08/22 11:27:52;;;;;;;3.77;2.50;;;28.70;77.90;;;;;;4898846;29;20465;-93
2022/08/22 11:30:28;;;;;;;3.50;2.63;;;28.90;77.30;;;;;;4899341;29;20491;-93
2022/08/22 11:33:21;;;;;;;2.83;2.50;;;29.20;77.10;;;;;;4899325;29;20475;-90
2022/08/22 11:35:54;;;;;;;3.00;2.40;;;29.30;76.90;;;;;;4900306;29;20555;-92
2022/08/22 11:38:33;;;;;;;3.80;2.43;;;29.00;77.50;;;;;;4908293;29;20472;-89
2022/08/22 11:41:08;;;;;;;4.33;3.10;;;28.80;77.70;;;;;;4903659;29;20806;-89
2022/08/22 11:43:46;;;;;;;3.70;2.90;;;28.40;78.90;;;;;;4899416;29;20472;-90
2022/08/22 11:46:24;;;;;;;5.00;2.73;;;28.20;77.80;;;;;;4899478;29;20846;-92
2022/08/22 11:49:13;;;;;;;4.83;2.70;;;28.20;78.90;;;;;;4899164;29;20510;-91
2022/08/22 11:52:10;;;;;;;3.83;2.70;;;28.90;79.60;;;;;;4899347;29;20488;-91
2022/08/22 11:54:54;;;;;;;3.53;2.57;;;29.90;74.60;;;;;;4900494;29;20489;-91
2022/08/22 11:57:30;;;;;;;3.13;2.27;;;30.70;69.10;;;;;;4899127;29;20461;-91
2022/08/22 12:00:08;;;;;;;4.37;2.93;;;31.20;69.20;;;;;;4898631;29;20472;-90
2022/08/22 12:02:47;;;;;;;3.30;2.30;;;31.40;70.10;;;;;;4898845;29;20469;-90
2022/08/22 12:05:19;;;;;;;2.80;2.00;;;30.80;70.60;;;;;;4898251;29;20496;-90
2022/08/22 12:07:55;;;;;;;3.83;2.90;;;30.30;73.30;;;;;;4898252;29;20484;-91
2022/08/22 12:10:30;;;;;;;4.13;2.70;;;29.70;73.80;;;;;;4898463;29;20568;-92
2022/08/22 12:13:05;;;;;;;3.53;2.50;;;30.00;74.30;;;;;;4898260;29;20473;-91
2022/08/22 12:15:42;;;;;;;3.93;2.83;;;30.40;75.00;;;;;;4898313;29;20445;-91
2022/08/22 12:18:42;;;;;;;4.07;2.90;;;31.10;73.20;;;;;;4898192;29;20861;-91
2022/08/22 12:21:35;;;;;;;4.03;2.20;;;31.70;72.90;;;;;;4898213;29;20491;-91
2022/08/22 12:24:32;;;;;;;3.87;2.70;;;32.10;70.80;;;;;;4898014;29;20504;-91
2022/08/22 12:27:22;;;;;;;4.60;3.00;;;32.30;68.90;;;;;;4898157;29;20455;-91
2022/08/22 12:30:13;;;;;;;3.80;2.80;;;32.60;68.10;;;;;;4900094;29;20465;-90
2022/08/22 12:33:02;;;;;;;3.50;2.53;;;32.90;67.40;;;;;;4900265;29;20465;-91
2022/08/22 12:35:42;;;;;;;3.33;2.63;;;33.20;67.00;;;;;;4898935;29;20457;-91
2022/08/22 12:38:22;;;;;;;3.00;2.47;;;33.50;64.90;;;;;;4899678;29;20478;-91
2022/08/22 12:41:14;;;;;;;3.70;2.40;;;33.50;65.10;;;;;;4898289;29;20485;-91
2022/08/22 12:43:54;;;;;;;5.30;2.67;;;33.60;65.90;;;;;;4899189;29;20461;-91
2022/08/22 12:46:35;;;;;;;4.00;2.93;;;33.70;64.90;;;;;;4897966;29;20877;-91
2022/08/22 12:49:27;;;;;;;3.30;2.40;;;33.90;64.90;;;;;;4897505;29;20565;-91
2022/08/22 12:52:18;;;;;;;4.40;2.83;;;34.10;65.70;;;;;;4897782;29;20553;-91
2022/08/22 12:55:24;;;;;;;3.60;2.73;;;34.10;64.80;;;;;;4904689;29;20465;-90
2022/08/22 12:58:06;;;;;;;4.80;3.00;;;33.30;64.90;;;;;;4902950;29;20468;-92
2022/08/22 13:00:38;;;;;;;3.60;2.40;;;32.60;67.40;;;;;;4909485;29;20496;-91
2022/08/22 13:03:10;;;;;;;3.53;2.60;;;32.60;66.60;;;;;;4918132;29;20457;-91
2022/08/22 13:05:40;;;;;;;4.03;2.67;;;32.90;65.70;;;;;;4909410;29;20511;-91
2022/08/22 13:08:15;;;;;;;3.53;2.83;;;33.00;65.60;;;;;;4898237;29;20479;-91
2022/08/22 13:10:46;;;;;;;3.70;2.63;;;32.50;65.60;;;;;;4897314;29;20495;-92
2022/08/22 13:13:23;;;;;;;3.13;2.30;;;32.70;65.80;;;;;;4897514;29;20469;-91
2022/08/22 13:15:58;;;;;;;4.10;2.47;;;33.10;65.30;;;;;;4897187;29;20463;-91
2022/08/22 13:18:31;;;;;;;4.00;3.03;;;32.40;66.00;;;;;;4901034;29;20464;-90
2022/08/22 13:21:01;;;;;;;2.70;2.40;;;31.90;66.60;;;;;;4899543;29;20864;-91
2022/08/22 13:23:32;;;;;;;4.10;2.83;;;31.40;67.80;;;;;;4897931;29;20460;-91
2022/08/22 13:26:05;;;;;;;3.07;2.70;;;31.20;68.50;;;;;;4897417;29;20493;-90
2022/08/22 13:28:37;;;;;;;2.90;2.33;;;31.00;68.80;;;;;;4897236;29;20464;-91
2022/08/22 13:31:07;;;;;;;4.67;3.07;;;31.50;68.40;;;;;;4897129;29;20484;-91
2022/08/22 13:33:45;;;;;;;3.60;2.67;;;32.20;67.10;;;;;;4897473;29;20544;-91
2022/08/22 13:36:17;;;;;;;4.33;2.67;;;32.20;65.40;;;;;;4899290;29;20475;-91
2022/08/22 13:38:49;;;;;;;3.37;2.67;;;31.90;66.90;;;;;;4897340;29;20480;-90
2022/08/22 13:41:22;;;;;;;3.83;2.70;;;31.50;67.80;;;;;;4897555;29;20858;-90
2022/08/22 13:44:13;;;;;;;3.87;2.70;;;31.10;68.80;;;;;;4897282;29;20469;-91
2022/08/22 13:46:42;;;;;;;3.60;2.60;;;30.70;69.10;;;;;;4897579;29;20465;-91
2022/08/22 13:49:13;;;;;;;5.90;2.33;;;30.40;69.60;;;;;;4898370;29;20479;-91
2022/08/22 13:51:48;;;;;;;3.83;2.57;;;30.30;70.00;;;;;;4901039;29;21031;-91
2022/08/22 13:54:44;;;;;;;3.40;2.40;;;30.90;68.10;;;;;;4901396;29;20492;-91
2022/08/22 13:57:18;;;;;;;3.50;2.80;;;31.70;66.40;;;;;;4902366;29;20833;-91
2022/08/22 13:59:50;;;;;;;3.40;2.50;;;32.50;65.90;;;;;;4901487;29;20844;-90
2022/08/22 14:02:39;;;;;;;3.00;2.60;;;33.10;64.60;;;;;;4901560;29;20465;-91
2022/08/22 14:05:11;;;;;;;3.60;2.67;;;33.50;64.00;;;;;;4901646;29;20499;-91
2022/08/22 14:07:44;;;;;;;2.87;2.37;;;33.10;63.30;;;;;;4901493;29;20507;-91
2022/08/22 14:10:19;;;;;;;3.20;2.60;;;32.40;64.20;;;;;;4900992;29;20496;-91
2022/08/22 14:13:06;;;;;;;3.87;2.53;;;31.70;65.00;;;;;;4900526;29;20479;-90
2022/08/22 14:15:35;;;;;;;3.10;2.40;;;31.10;65.20;;;;;;4902125;29;20465;-90
2022/08/22 14:18:13;;;;;;;3.03;2.50;;;30.60;66.20;;;;;;4900170;29;20546;-91
2022/08/22 14:20:42;;;;;;;2.90;2.37;;;30.20;66.70;;;;;;4901486;29;20496;-88
2022/08/22 14:23:13;;;;;;;4.20;2.50;;;30.10;69.50;;;;;;4900582;29;20879;-88
2022/08/22 14:25:43;;;;;;;4.07;2.70;;;30.40;69.30;;;;;;4900169;29;20492;-88
2022/08/22 14:28:23;;;;;;;4.40;2.67;;;31.20;68.10;;;;;;4900552;29;20458;-88
2022/08/22 14:30:57;;;;;;;3.33;2.50;;;32.00;64.10;;;;;;4899914;29;20489;-89
2022/08/22 14:33:31;;;;;;;2.70;2.23;;;32.70;63.50;;;;;;4900423;29;20825;-89
2022/08/22 14:36:03;;;;;;;4.40;2.50;;;32.90;64.10;;;;;;4900094;29;21060;-89
2022/08/22 14:38:37;;;;;;;2.87;2.40;;;32.90;63.00;;;;;;4905800;29;20830;-89
2022/08/22 14:41:08;;;;;;;2.87;2.40;;;32.90;63.50;;;;;;4900321;29;20995;-89
2022/08/22 14:43:49;;;;;;;2.70;2.40;;;33.30;63.10;;;;;;4900188;29;20468;-89
2022/08/22 14:46:23;;;;;;;3.03;2.60;;;33.60;63.00;;;;;;4899987;29;20488;-89
2022/08/22 14:49:14;;;;;;;5.40;2.33;;;33.80;59.90;;;;;;4900012;29;20473;-89
2022/08/22 14:51:48;;;;;;;2.53;2.40;;;34.20;61.90;;;;;;4899653;29;20492;-89
2022/08/22 14:54:17;;;;;;;3.00;2.67;;;34.40;61.70;;;;;;4899679;29;20456;-89
2022/08/22 14:56:46;;;;;;;3.63;2.53;;;34.70;60.50;;;;;;4899682;29;20978;-88
2022/08/22 14:59:27;;;;;;;3.03;2.53;;;34.70;60.30;;;;;;4899745;29;20909;-89
2022/08/22 15:02:02;;;;;;;3.60;2.40;;;34.70;59.60;;;;;;4899648;29;20488;-88
2022/08/22 15:04:37;;;;;;;3.27;2.53;;;34.90;58.30;;;;;;4899656;29;20457;-89
2022/08/22 15:07:05;;;;;;;3.80;2.60;;;34.90;58.30;;;;;;4899328;29;20476;-90
2022/08/22 15:09:37;;;;;;;2.70;2.30;;;34.90;58.80;;;;;;4899438;29;20464;-89
2022/08/22 15:12:17;;;;;;;2.70;2.23;;;34.90;59.20;;;;;;4899206;29;20485;-89
2022/08/22 15:14:47;;;;;;;2.47;2.30;;;35.10;59.00;;;;;;4899516;29;20457;-89
2022/08/22 15:17:37;;;;;;;3.57;2.30;;;35.20;58.00;;;;;;4899137;29;20461;-89
2022/08/22 15:20:21;;;;;;;3.87;2.50;;;35.10;58.90;;;;;;4899281;29;20547;-89
2022/08/22 15:22:50;;;;;;;3.70;2.47;;;35.20;58.80;;;;;;4899392;29;20978;-89
2022/08/22 15:25:21;;;;;;;3.60;2.70;;;35.10;58.20;;;;;;4899076;29;20485;-89
2022/08/22 15:27:53;;;;;;;2.97;2.77;;;35.00;58.80;;;;;;4899260;29;20824;-89
2022/08/22 15:30:37;;;;;;;3.50;2.70;;;34.80;59.50;;;;;;4899135;29;20496;-90
2022/08/22 15:33:14;;;;;;;3.73;2.20;;;34.90;59.50;;;;;;4900178;29;20465;-89
2022/08/22 15:35:45;;;;;;;3.20;2.57;;;35.10;60.00;;;;;;4902751;29;20469;-89
2022/08/22 15:38:30;;;;;;;3.80;2.73;;;35.00;59.10;;;;;;4899120;29;20445;-89
2022/08/22 15:41:28;;;;;;;3.30;2.67;;;34.80;58.20;;;;;;4899157;29;20488;-89
2022/08/22 15:44:05;;;;;;;4.13;2.90;;;34.70;58.30;;;;;;4899108;29;20524;-89
2022/08/22 15:46:37;;;;;;;3.00;2.60;;;34.50;58.10;;;;;;4899272;29;20484;-88
2022/08/22 15:49:07;;;;;;;5.07;2.60;;;34.30;59.30;;;;;;4899390;29;20484;-89
2022/08/22 15:51:40;;;;;;;3.27;2.30;;;34.30;59.70;;;;;;4898758;29;20839;-88
2022/08/22 15:54:12;;;;;;;4.70;2.57;;;34.40;60.00;;;;;;4900044;29;20845;-88
2022/08/22 15:56:42;;;;;;;3.50;2.60;;;34.40;59.60;;;;;;4898920;29;20466;-89
2022/08/22 15:59:34;;;;;;;3.00;2.30;;;34.30;59.30;;;;;;4899609;29;20822;-88
2022/08/22 16:02:07;;;;;;;4.43;3.20;;;34.40;59.70;;;;;;4899273;29;20493;-88
2022/08/22 16:04:39;;;;;;;3.30;2.30;;;34.10;58.50;;;;;;4898585;29;20465;-88
2022/08/22 16:07:34;;;;;;;3.73;2.80;;;33.70;60.00;;;;;;4898568;29;20469;-89
2022/08/22 16:10:06;;;;;;;2.60;2.27;;;33.50;60.40;;;;;;4898468;29;20442;-88
2022/08/22 16:12:38;;;;;;;3.07;2.40;;;33.50;60.70;;;;;;4897620;29;20461;-89
2022/08/22 16:15:27;;;;;;;4.97;2.53;;;33.50;60.40;;;;;;4898748;29;20450;-89
2022/08/22 16:17:55;;;;;;;3.63;2.77;;;33.40;60.80;;;;;;4898524;29;20473;-89
2022/08/22 16:20:51;;;;;;;4.27;2.60;;;33.40;60.30;;;;;;4898162;29;20481;-88
2022/08/22 16:23:19;;;;;;;3.53;2.57;;;33.30;61.10;;;;;;4898350;29;20456;-89
2022/08/22 16:26:11;;;;;;;3.10;2.50;;;33.10;61.90;;;;;;4898131;29;20584;-89
2022/08/22 16:28:53;;;;;;;3.40;2.50;;;33.10;60.90;;;;;;4888874;29;20501;-88
2022/08/22 16:31:30;;;;;;;3.00;2.40;;;32.80;61.30;;;;;;4898830;29;20508;-90
2022/08/22 16:34:14;;;;;;;3.40;2.80;;;32.80;61.40;;;;;;4898324;29;20448;-89
2022/08/22 16:36:48;;;;;;;2.83;2.43;;;32.60;60.70;;;;;;4898690;29;20833;-89
2022/08/22 16:39:35;;;;;;;4.23;2.53;;;32.50;60.90;;;;;;4900658;29;20551;-89
2022/08/22 16:42:34;;;;;;;3.23;2.57;;;32.30;61.90;;;;;;4910477;29;20524;-93
2022/08/22 16:45:17;;;;;;;2.67;2.30;;;32.30;62.40;;;;;;4919586;29;20495;-93
2022/08/22 16:47:47;;;;;;;3.00;2.60;;;32.20;62.50;;;;;;4903978;29;20475;-89
2022/08/22 16:50:34;;;;;;;3.07;2.30;;;32.00;63.70;;;;;;4897624;29;21014;-89
2022/08/22 16:53:08;;;;;;;4.03;2.27;;;31.90;63.20;;;;;;4897945;29;20456;-91
2022/08/22 16:55:50;;;;;;;3.27;2.57;;;31.60;63.70;;;;;;4898512;29;20488;-90
2022/08/22 16:58:52;;;;;;;3.00;2.53;;;31.40;64.30;;;;;;4897635;29;20465;-89
2022/08/22 17:01:34;;;;;;;8.23;2.60;;;31.30;64.40;;;;;;4897599;29;20483;-89
2022/08/22 17:04:13;;;;;;;4.10;2.70;;;31.40;64.10;;;;;;4898048;29;20520;-90
2022/08/22 17:07:06;;;;;;;3.27;2.60;;;31.30;64.90;;;;;;4900946;29;20983;-89
2022/08/22 17:10:13;;;;;;;2.67;2.20;;;31.10;64.80;;;;;;4896863;29;20464;-89
2022/08/22 17:12:53;;;;;;;5.50;3.00;;;30.70;64.90;;;;;;4901601;29;20471;-89
2022/08/22 17:15:31;;;;;;;3.30;2.43;;;30.40;65.60;;;;;;4897421;29;20461;-90
2022/08/22 17:18:14;;;;;;;4.27;2.70;;;30.40;66.20;;;;;;4897419;29;20471;-89
2022/08/22 17:20:47;;;;;;;4.33;2.77;;;30.20;66.30;;;;;;4897294;29;20540;-89
2022/08/22 17:23:31;;;;;;;3.00;2.40;;;29.90;67.30;;;;;;4897307;29;20982;-89
2022/08/22 17:26:07;;;;;;;3.60;2.43;;;29.80;67.90;;;;;;4897172;29;20485;-91
2022/08/22 17:28:40;;;;;;;3.53;2.47;;;29.70;69.40;;;;;;4897290;29;20464;-89
2022/08/22 17:31:16;;;;;;;3.30;2.70;;;29.80;71.20;;;;;;4897410;29;20515;-89
2022/08/22 17:34:00;;;;;;;3.07;2.60;;;29.70;72.00;;;;;;4897494;29;20465;-89
2022/08/22 17:36:38;;;;;;;4.43;2.80;;;29.50;72.00;;;;;;4897193;29;20501;-89
2022/08/22 17:39:30;;;;;;;2.97;2.43;;;29.40;73.20;;;;;;4897154;29;20457;-89
2022/08/22 17:42:07;;;;;;;3.57;2.53;;;29.20;73.60;;;;;;4896179;29;20875;-89
2022/08/22 17:44:44;;;;;;;4.00;2.90;;;29.00;74.60;;;;;;4897664;29;20465;-90
2022/08/22 17:47:15;;;;;;;5.60;2.60;;;28.60;75.50;;;;;;4897302;29;20465;-89
2022/08/22 17:49:53;;;;;;;3.20;2.27;;;28.50;76.50;;;;;;4899477;29;20448;-89
2022/08/22 17:52:28;;;;;;;3.03;2.30;;;28.20;77.70;;;;;;4897377;29;20469;-91
2022/08/22 17:55:02;;;;;;;3.63;2.60;;;27.90;78.70;;;;;;4897249;29;20549;-89
2022/08/22 17:57:32;;;;;;;5.27;2.73;;;27.60;79.00;;;;;;4897080;29;20478;-90
2022/08/22 18:00:08;;;;;;;3.97;2.50;;;27.40;79.10;;;;;;4896983;29;20469;-89
2022/08/22 18:02:40;;;;;;;4.90;3.17;;;27.30;78.30;;;;;;4897245;29;20944;-90
2022/08/22 18:05:12;;;;;;;3.00;2.47;;;27.10;78.30;;;;;;4899560;29;20977;-89
2022/08/22 18:07:55;;;;;;;3.33;2.50;;;26.90;78.60;;;;;;4897053;29;20472;-89
2022/08/22 18:10:37;;;;;;;3.30;2.60;;;26.80;78.10;;;;;;4896935;29;21021;-89
2022/08/22 18:13:09;;;;;;;2.97;2.50;;;26.70;77.90;;;;;;4897310;29;20560;-89
2022/08/22 18:15:45;;;;;;;3.07;2.33;;;26.60;77.80;;;;;;4897016;29;20882;-89
2022/08/22 18:18:20;;;;;;;3.50;2.80;;;26.40;78.70;;;;;;4897227;29;20468;-89
2022/08/22 18:20:56;;;;;;;3.30;2.53;;;26.10;79.90;;;;;;4899553;29;20528;-90
2022/08/22 18:23:28;;;;;;;14.20;3.03;;;25.90;80.60;;;;;;4897541;29;20833;-88
2022/08/22 18:26:05;;;;;;;4.30;2.70;;;25.60;80.90;;;;;;4897182;29;20477;-89
2022/08/22 18:28:40;;;;;;;3.90;2.30;;;25.30;82.90;;;;;;4896833;29;20453;-89
2022/08/22 18:31:14;;;;;;;3.13;2.40;;;25.00;83.20;;;;;;4897085;29;20556;-89
2022/08/22 18:33:48;;;;;;;3.47;2.53;;;24.90;83.40;;;;;;4896909;29;20462;-89
2022/08/22 18:36:22;;;;;;;3.57;2.60;;;24.80;84.10;;;;;;4899403;29;20449;-89
2022/08/22 18:38:57;;;;;;;3.47;2.63;;;24.50;84.50;;;;;;4900293;29;20464;-89
2022/08/22 18:41:32;;;;;;;3.30;2.60;;;24.40;84.30;;;;;;4900584;29;20483;-90
2022/08/22 18:44:00;;;;;;;2.47;2.23;;;24.30;84.70;;;;;;4900485;29;20812;-88
2022/08/22 18:46:42;;;;;;;3.10;2.60;;;24.10;84.70;;;;;;4900627;29;20495;-89
2022/08/22 18:49:40;;;;;;;3.73;2.40;;;24.00;84.70;;;;;;4900504;29;20461;-88
2022/08/22 18:52:37;;;;;;;8.50;2.37;;;23.90;84.80;;;;;;4900171;29;20484;-88
2022/08/22 18:55:26;;;;;;;3.20;2.30;;;23.80;85.70;;;;;;4900446;29;20951;-89
2022/08/22 18:58:19;;;;;;;3.33;2.50;;;23.80;85.60;;;;;;4900406;29;20490;-89
2022/08/22 19:01:07;;;;;;;3.47;2.53;;;23.80;85.30;;;;;;4900487;29;20485;-89
2022/08/22 19:03:51;;;;;;;3.00;2.20;;;23.90;85.40;;;;;;4900215;29;20480;-89
2022/08/22 19:06:50;;;;;;;3.97;2.60;;;23.80;85.50;;;;;;4899797;29;20485;-91
2022/08/22 19:09:40;;;;;;;3.40;2.30;;;23.60;86.10;;;;;;4900587;29;20469;-89
2022/08/22 19:12:25;;;;;;;3.83;2.27;;;23.60;85.70;;;;;;4901220;29;20576;-90
2022/08/22 19:15:08;;;;;;;4.37;2.43;;;23.70;87.40;;;;;;4901409;29;20528;-89
2022/08/22 19:17:59;;;;;;;3.97;2.63;;;23.70;88.70;;;;;;4901453;29;20537;-91
2022/08/22 19:23:44;;;;;;;4.23;2.70;;;23.40;89.60;;;;;;4901154;29;20533;-90
2022/08/22 19:26:33;;;;;;;3.50;2.43;;;23.10;89.30;;;;;;4900972;29;20508;-88
2022/08/22 19:29:04;;;;;;;3.97;2.20;;;22.80;90.30;;;;;;4901239;29;20471;-89
2022/08/22 19:32:02;;;;;;;3.20;2.40;;;22.70;91.50;;;;;;4900999;29;20491;-90
2022/08/22 19:34:39;;;;;;;3.27;2.47;;;22.50;92.40;;;;;;4878294;29;20481;-89
2022/08/22 19:37:25;;;;;;;3.17;2.50;;;22.30;92.40;;;;;;4900892;29;20469;-89
2022/08/22 19:39:55;;;;;;;4.07;2.90;;;22.10;93.10;;;;;;4906938;29;20455;-93
2022/08/22 19:42:32;;;;;;;3.90;2.90;;;22.10;92.50;;;;;;4916354;29;20480;-89
2022/08/22 19:45:17;;;;;;;4.67;2.50;;;22.00;93.40;;;;;;4901958;29;20480;-88
2022/08/22 19:47:58;;;;;;;3.03;2.03;;;21.90;94.10;;;;;;4899746;29;20524;-90
2022/08/22 19:50:33;;;;;;;3.40;2.27;;;21.70;94.20;;;;;;4901481;29;20488;-89
2022/08/22 19:53:24;;;;;;;4.37;2.47;;;21.50;94.30;;;;;;4900462;29;20844;-89
2022/08/22 19:56:17;;;;;;;9.30;2.33;;;21.30;94.90;;;;;;4900861;29;20959;-89
2022/08/22 19:58:54;;;;;;;3.03;2.20;;;21.30;95.20;;;;;;4900608;29;20952;-89
2022/08/22 20:01:38;;;;;;;4.63;2.80;;;21.20;95.80;;;;;;4900326;29;20492;-89
2022/08/22 20:04:19;;;;;;;5.13;2.73;;;21.00;96.00;;;;;;4900106;29;20919;-89
2022/08/22 20:06:58;;;;;;;4.27;3.07;;;20.90;96.70;;;;;;4899813;29;20499;-89
2022/08/22 20:09:35;;;;;;;2.30;2.00;;;21.00;96.80;;;;;;4900317;29;20461;-90
2022/08/22 20:12:12;;;;;;;3.63;2.43;;;20.90;97.00;;;;;;4900043;29;20496;-90
2022/08/22 20:14:42;;;;;;;2.77;2.23;;;21.00;96.70;;;;;;4900331;29;20465;-90
2022/08/22 20:17:14;;;;;;;3.10;2.33;;;21.00;97.40;;;;;;4903257;29;20454;-89
2022/08/22 20:19:52;;;;;;;3.43;2.20;;;21.00;97.80;;;;;;4901444;29;20483;-90
2022/08/22 21:13:47;;;;;;;2.87;2.30;;;19.80;98.00;;;;;;4752028;30;20590;-88
2022/08/22 21:40:39;;;;;;;6.23;2.67;;;19.30;98.00;;;;;;4665679;30;20498;-88
2022/08/22 21:43:33;;;;;;;3.43;2.50;;;19.30;98.00;;;;;;4713741;30;21000;-88
2022/08/22 21:46:10;;;;;;;4.33;2.70;;;19.30;98.00;;;;;;4803403;29;20467;-90
2022/08/22 21:49:03;;;;;;;5.63;3.00;;;19.40;98.00;;;;;;4838968;29;20464;-88
2022/08/22 21:52:10;;;;;;;4.00;2.97;;;19.50;98.00;;;;;;4838217;29;20487;-88
2022/08/22 21:54:55;;;;;;;3.10;2.40;;;19.50;98.00;;;;;;4838536;29;20479;-90
2022/08/22 21:57:53;;;;;;;4.23;2.63;;;19.60;98.00;;;;;;4864151;29;20470;-88
